Time;durP1;ratioP1;P1;durP2;ratioP2;P2;SDS_P1;SDS_P2;PMS_P1;PMS_P2;Temp;Humidity;BMP_temperature;BMP_pressure;BME280_temperature;BME280_humidity;BME280_pressure;Samples;Min_cycle;Max_cycle;Signal;HPM_P1;HPM_P2
2023/06/20 00:03:25;;;;;;;16.20;9.50;;;;;;;19.59;65.06;99027.23;223762;180;145612;-64
2023/06/20 00:08:28;;;;;;;10.50;9.40;;;;;;;19.51;65.30;99030.11;223692;181;138054;-65
2023/06/20 00:13:32;;;;;;;12.90;9.10;;;;;;;19.43;65.43;99021.58;223827;181;136805;-65
2023/06/20 00:18:38;;;;;;;13.70;9.90;;;;;;;19.38;65.62;99023.65;223742;181;145255;-65
2023/06/20 00:23:42;;;;;;;17.90;8.90;;;;;;;19.30;65.74;99017.55;223752;181;138591;-64
2023/06/20 00:28:45;;;;;;;13.80;9.70;;;;;;;19.25;65.94;99016.96;223886;181;137518;-64
2023/06/20 00:33:48;;;;;;;11.40;9.80;;;;;;;19.25;65.82;99015.08;223795;181;145244;-64
2023/06/20 00:38:53;;;;;;;13.90;9.60;;;;;;;19.27;65.82;99014.85;223683;181;138551;-65
2023/06/20 00:44:00;;;;;;;15.70;9.70;;;;;;;19.24;65.61;99016.71;223772;181;137245;-64
2023/06/20 00:49:11;;;;;;;12.50;9.30;;;;;;;19.18;65.60;99013.00;223941;181;145497;-63
2023/06/20 00:54:16;;;;;;;13.10;9.70;;;;;;;19.08;65.82;99008.63;223799;181;138951;-61
2023/06/20 00:59:19;;;;;;;11.70;9.20;;;;;;;18.99;65.88;99010.18;223800;181;142137;-63
2023/06/20 01:04:23;;;;;;;12.60;9.00;;;;;;;18.90;65.97;99013.70;223860;181;145001;-65
2023/06/20 01:09:44;;;;;;;13.80;9.20;;;;;;;18.84;66.24;99018.14;223804;181;138333;-64
2023/06/20 01:15:01;;;;;;;10.90;8.20;;;;;;;18.77;66.34;99022.54;223904;180;136883;-64
2023/06/20 01:20:19;;;;;;;12.80;8.70;;;;;;;18.74;66.39;99023.95;223835;181;145164;-63
2023/06/20 01:25:25;;;;;;;11.10;8.30;;;;;;;18.74;66.44;99024.70;223815;181;138882;-65
2023/06/20 01:30:39;;;;;;;13.10;9.30;;;;;;;18.72;66.63;99019.27;223722;181;136989;-65
2023/06/20 01:35:45;;;;;;;13.60;9.50;;;;;;;18.68;66.76;99013.70;223755;181;145091;-66
2023/06/20 01:50:47;;;;;;;13.60;9.50;;;;;;;18.54;67.05;99012.66;219743;192;676068;-64
2023/06/20 01:55:52;;;;;;;17.50;9.50;;;;;;;18.47;67.29;99020.58;223824;182;136115;-65
2023/06/20 02:00:57;;;;;;;14.70;8.80;;;;;;;18.41;67.35;99019.69;223722;183;143356;-65
2023/06/20 02:06:03;;;;;;;13.20;8.70;;;;;;;18.39;67.25;99021.67;223731;182;140773;-64
2023/06/20 02:11:08;;;;;;;14.70;8.50;;;;;;;18.41;67.07;99022.73;223764;182;137128;-64
2023/06/20 02:16:12;;;;;;;;;;;;;;;18.40;66.97;99022.84;223714;182;143507;-65
2023/06/20 02:21:23;;;;;;;12.10;9.10;;;;;;;18.33;66.99;99017.75;223745;182;139312;-63
2023/06/20 02:26:31;;;;;;;14.00;8.80;;;;;;;18.29;67.22;99019.40;223828;182;136640;-65
2023/06/20 02:31:39;;;;;;;12.80;9.40;;;;;;;18.28;67.25;99015.03;223714;182;143485;-65
2023/06/20 02:36:44;;;;;;;15.80;9.70;;;;;;;18.22;67.25;99015.73;223843;180;139104;-67
2023/06/20 02:41:47;;;;;;;108.10;89.40;;;;;;;18.16;67.72;99015.88;223967;180;136584;-66
2023/06/20 02:47:22;;;;;;;21.50;15.70;;;;;;;18.19;67.44;99013.36;223846;181;145766;-66
2023/06/20 02:52:44;;;;;;;88.20;65.90;;;;;;;18.25;67.16;99021.02;223682;181;139261;-67
2023/06/20 02:57:54;;;;;;;15.70;9.70;;;;;;;18.33;67.03;99018.99;223768;180;137307;-65
2023/06/20 03:03:15;;;;;;;82.10;63.30;;;;;;;18.38;66.93;99021.04;223711;181;145600;-64
2023/06/20 03:08:21;;;;;;;21.30;15.00;;;;;;;18.54;67.29;99015.26;223742;181;138856;-64
2023/06/20 03:13:25;;;;;;;21.20;14.00;;;;;;;18.59;66.40;99015.11;222350;181;136832;-67
2023/06/20 03:18:30;;;;;;;101.10;76.20;;;;;;;18.62;66.95;99011.92;223665;181;145219;-65
2023/06/20 03:23:33;;;;;;;18.50;11.90;;;;;;;18.78;66.25;99017.64;223700;181;138700;-66
2023/06/20 03:28:36;;;;;;;13.70;9.70;;;;;;;18.82;65.95;99012.38;223843;182;136992;-63
2023/06/20 03:33:40;;;;;;;19.30;10.20;;;;;;;18.79;65.77;99012.71;223805;181;147335;-64
2023/06/20 03:38:43;;;;;;;19.40;9.50;;;;;;;18.70;65.97;99016.92;223822;181;138431;-63
2023/06/20 03:43:46;;;;;;;19.50;9.10;;;;;;;18.65;66.08;99029.77;223754;181;137281;-64
2023/06/20 03:48:50;;;;;;;16.30;8.90;;;;;;;18.71;66.20;99034.86;223810;181;146013;-64
2023/06/20 03:53:53;;;;;;;24.40;10.80;;;;;;;18.81;66.01;99043.58;223779;181;138224;-64
2023/06/20 03:58:58;;;;;;;105.50;87.80;;;;;;;18.93;66.04;99044.19;223727;181;138008;-65
2023/06/20 04:04:03;;;;;;;23.00;16.80;;;;;;;18.98;65.86;99041.55;223788;181;146739;-66
2023/06/20 04:09:08;;;;;;;18.40;9.60;;;;;;;19.08;65.57;99037.18;223708;181;138983;-65
2023/06/20 04:14:11;;;;;;;18.90;10.50;;;;;;;19.08;65.39;99031.80;223761;181;136623;-65
2023/06/20 04:19:18;;;;;;;14.10;10.10;;;;;;;19.09;65.41;99035.85;223803;181;146044;-65
2023/06/20 04:24:22;;;;;;;15.80;10.30;;;;;;;19.13;65.28;99030.91;223753;181;138604;-65
2023/06/20 04:29:29;;;;;;;15.60;10.00;;;;;;;19.15;65.46;99034.66;223835;181;136983;-65
2023/06/20 04:34:33;;;;;;;11.40;9.30;;;;;;;19.19;65.71;99036.48;223734;181;144618;-65
2023/06/20 04:39:36;;;;;;;14.40;9.70;;;;;;;19.29;65.78;99039.27;223835;181;138949;-66
2023/06/20 04:44:39;;;;;;;16.60;10.50;;;;;;;19.50;65.81;99043.36;223784;181;139335;-64
2023/06/20 04:49:43;;;;;;;15.00;11.00;;;;;;;19.71;65.65;99044.13;223656;181;145749;-64
2023/06/20 04:54:47;;;;;;;14.40;10.70;;;;;;;19.91;65.44;99047.86;223797;181;138243;-65
2023/06/20 04:59:50;;;;;;;16.80;10.50;;;;;;;20.05;65.12;99051.47;223802;181;137171;-64
2023/06/20 05:04:54;;;;;;;20.00;11.30;;;;;;;20.20;65.08;99049.70;223656;181;145029;-64
2023/06/20 05:09:57;;;;;;;18.80;11.10;;;;;;;20.34;65.05;99053.84;223738;181;138452;-65
2023/06/20 05:15:01;;;;;;;14.40;10.70;;;;;;;20.47;65.00;99053.19;223737;181;137489;-65
2023/06/20 05:20:06;;;;;;;17.40;10.80;;;;;;;20.58;64.99;99055.69;223772;181;145814;-66
2023/06/20 05:25:10;;;;;;;15.60;10.60;;;;;;;20.71;64.87;99057.23;223760;181;139394;-64
2023/06/20 05:30:14;;;;;;;16.40;10.20;;;;;;;20.87;64.46;99049.98;223737;181;137774;-67
2023/06/20 05:35:17;;;;;;;17.90;11.00;;;;;;;21.08;64.00;99053.89;223791;181;145953;-66
2023/06/20 05:40:21;;;;;;;17.70;11.80;;;;;;;21.28;63.37;99048.13;223719;181;138036;-66
2023/06/20 05:45:24;;;;;;;24.50;12.20;;;;;;;21.45;62.53;99052.11;223733;181;137527;-68
2023/06/20 05:50:27;;;;;;;12.20;10.20;;;;;;;21.59;62.07;99042.33;223802;181;145728;-69
2023/06/20 05:55:31;;;;;;;16.20;10.30;;;;;;;21.72;61.26;99044.40;223738;181;138398;-66
2023/06/20 06:00:34;;;;;;;16.50;10.40;;;;;;;21.82;60.68;99045.77;223716;182;137080;-68
2023/06/20 06:05:39;;;;;;;11.80;8.90;;;;;;;21.93;60.28;99047.85;223697;182;146941;-66
2023/06/20 06:10:42;;;;;;;12.70;8.00;;;;;;;22.06;58.96;99051.02;223711;181;140063;-66
2023/06/20 06:15:46;;;;;;;11.40;7.80;;;;;;;22.17;57.78;99051.00;223364;181;137548;-68
2023/06/20 06:21:02;;;;;;;11.50;8.20;;;;;;;22.29;57.27;99050.81;223069;182;145265;-68
2023/06/20 06:26:07;;;;;;;9.80;8.60;;;;;;;22.41;56.67;99050.95;223670;181;138271;-67
2023/06/20 06:31:15;;;;;;;12.30;9.30;;;;;;;22.52;55.90;99053.30;223706;182;138752;-72
2023/06/20 06:36:18;;;;;;;13.70;9.40;;;;;;;22.58;55.83;99056.93;223768;182;145827;-72
2023/06/20 06:41:21;;;;;;;15.20;9.30;;;;;;;22.67;55.94;99061.73;223874;182;138974;-72
2023/06/20 06:46:24;;;;;;;33.50;24.00;;;;;;;22.78;55.78;99059.44;223775;181;136855;-72
2023/06/20 06:51:29;;;;;;;15.90;10.00;;;;;;;22.86;54.46;99057.59;223781;181;145362;-71
2023/06/20 06:56:33;;;;;;;12.40;8.30;;;;;;;22.88;53.45;99060.02;223753;181;137989;-74
2023/06/20 07:01:36;;;;;;;9.10;7.90;;;;;;;23.01;53.72;99066.47;223699;181;136938;-72
2023/06/20 07:06:39;;;;;;;9.80;7.80;;;;;;;23.15;53.84;99067.91;223804;181;145303;-71
2023/06/20 07:11:43;;;;;;;11.30;8.60;;;;;;;23.24;53.78;99071.99;223649;181;138907;-72
2023/06/20 07:16:47;;;;;;;13.00;8.10;;;;;;;23.32;53.86;99070.13;222522;182;136930;-71
2023/06/20 07:22:10;;;;;;;39.90;28.00;;;;;;;23.44;53.48;99069.63;223738;181;144663;-72
2023/06/20 07:27:13;;;;;;;52.00;35.00;;;;;;;23.55;52.94;99071.59;223221;181;138282;-69
2023/06/20 07:32:18;;;;;;;15.20;9.70;;;;;;;23.63;52.50;99072.67;223797;181;140527;-70
2023/06/20 07:37:21;;;;;;;10.90;8.80;;;;;;;23.73;52.36;99070.83;223767;181;145535;-70
2023/06/20 07:42:24;;;;;;;18.20;8.30;;;;;;;23.82;51.40;99074.25;223744;181;138773;-70
2023/06/20 07:47:28;;;;;;;13.80;8.10;;;;;;;23.93;51.35;99077.08;223808;181;137341;-70
2023/06/20 07:52:32;;;;;;;17.20;8.60;;;;;;;24.07;51.12;99081.16;223483;181;145231;-70
2023/06/20 07:57:36;;;;;;;12.90;8.10;;;;;;;24.19;51.26;99074.33;223652;182;138242;-72
2023/06/20 08:02:39;;;;;;;12.90;7.50;;;;;;;24.23;49.73;99069.98;223668;181;137908;-72
2023/06/20 08:07:43;;;;;;;13.20;7.50;;;;;;;24.32;49.48;99070.67;223721;185;145623;-72
2023/06/20 08:12:47;;;;;;;13.70;8.20;;;;;;;24.40;49.34;99070.73;223722;181;138214;-70
2023/06/20 08:17:51;;;;;;;12.20;7.20;;;;;;;24.49;49.54;99072.96;223773;181;137395;-70
2023/06/20 08:22:54;;;;;;;11.20;6.70;;;;;;;24.58;49.07;99073.66;223699;181;145595;-68
2023/06/20 08:27:57;;;;;;;10.40;7.00;;;;;;;24.62;48.81;99077.24;223699;182;139383;-65
2023/06/20 08:33:19;;;;;;;165.60;134.10;;;;;;;24.66;49.60;99075.23;223630;181;137090;-66
2023/06/20 08:38:22;;;;;;;;;;;;;;;24.67;49.99;99073.28;223620;181;145573;-67
2023/06/20 08:43:29;;;;;;;10.80;8.40;;;;;;;24.69;49.50;99078.70;223787;181;138993;-66
2023/06/20 08:48:32;;;;;;;9.60;7.00;;;;;;;24.71;48.94;99083.34;223711;181;138387;-66
2023/06/20 08:53:37;;;;;;;16.10;6.40;;;;;;;24.77;49.11;99087.89;223764;182;145112;-69
2023/06/20 08:58:41;;;;;;;8.50;6.30;;;;;;;24.88;48.03;99083.89;223753;181;139974;-69
2023/06/20 09:03:44;;;;;;;9.60;5.80;;;;;;;25.02;46.58;99082.30;223813;182;137098;-69
2023/06/20 09:08:48;;;;;;;8.50;6.60;;;;;;;25.18;46.25;99076.99;223736;181;145157;-72
2023/06/20 09:13:51;;;;;;;11.10;5.50;;;;;;;25.31;44.50;99073.61;223711;181;139077;-71
2023/06/20 09:19:03;;;;;;;10.30;6.60;;;;;;;25.44;43.16;99068.92;223762;182;136945;-66
2023/06/20 09:24:07;;;;;;;12.80;6.40;;;;;;;25.56;42.83;99063.95;223717;181;146119;-67
2023/06/20 09:29:14;;;;;;;13.20;6.50;;;;;;;25.69;42.32;99056.10;223689;181;139266;-69
2023/06/20 09:34:19;;;;;;;6.60;5.90;;;;;;;25.78;42.69;99049.21;223764;181;136795;-67
2023/06/20 09:39:23;;;;;;;;;;;;;;;25.94;42.90;99042.27;223724;181;145208;-66
2023/06/20 09:44:35;;;;;;;10.90;5.40;;;;;;;26.13;41.83;99047.09;223752;181;140723;-67
2023/06/20 09:49:43;;;;;;;10.00;5.80;;;;;;;26.32;40.23;99049.10;223755;181;137621;-66
2023/06/20 09:55:00;;;;;;;10.00;5.80;;;;;;;26.41;40.64;99042.17;223732;181;145348;-65
2023/06/20 10:00:10;;;;;;;9.90;6.20;;;;;;;26.52;41.93;99046.40;223774;181;139299;-67
2023/06/20 10:05:18;;;;;;;10.50;6.50;;;;;;;26.57;42.13;99044.68;223717;181;137332;-68
2023/06/20 10:10:21;;;;;;;16.20;7.00;;;;;;;26.64;42.75;99044.40;223665;181;145759;-67
2023/06/20 10:15:26;;;;;;;12.40;7.50;;;;;;;26.70;42.80;99038.27;223717;181;138983;-66
2023/06/20 10:20:34;;;;;;;12.70;7.00;;;;;;;26.77;43.21;99038.82;223789;181;137243;-67
2023/06/20 10:25:52;;;;;;;17.30;7.00;;;;;;;26.89;43.52;99032.94;223704;182;147571;-67
2023/06/20 10:31:00;;;;;;;13.40;6.90;;;;;;;27.04;43.11;99031.09;223686;181;138443;-68
2023/06/20 10:36:11;;;;;;;11.60;6.80;;;;;;;27.11;42.33;99021.34;223658;181;137370;-66
2023/06/20 10:41:26;;;;;;;12.60;6.40;;;;;;;27.30;41.76;99016.84;223676;181;148245;-67
2023/06/20 10:46:36;;;;;;;12.90;6.60;;;;;;;27.53;40.93;99014.15;223651;181;140751;-67
2023/06/20 10:51:50;;;;;;;11.00;6.20;;;;;;;27.71;40.55;99012.03;223688;181;136985;-68
2023/06/20 10:56:54;;;;;;;9.30;6.30;;;;;;;27.94;40.26;99006.59;223684;181;148241;-68
2023/06/20 11:01:57;;;;;;;18.40;8.30;;;;;;;28.07;40.51;99008.33;223681;182;138440;-68
2023/06/20 11:07:07;;;;;;;11.60;6.90;;;;;;;28.15;40.29;99003.25;223542;181;137030;-67
2023/06/20 11:12:10;;;;;;;10.00;7.00;;;;;;;28.27;39.88;99003.52;223731;181;147633;-68
2023/06/20 11:17:14;;;;;;;8.60;6.60;;;;;;;28.33;39.61;99000.09;223638;181;138269;-69
2023/06/20 11:22:17;;;;;;;10.20;6.30;;;;;;;28.52;38.80;99000.65;223781;181;136924;-67
2023/06/20 11:27:20;;;;;;;10.20;6.60;;;;;;;28.73;38.50;98995.50;223726;181;147268;-69
2023/06/20 11:32:23;;;;;;;9.70;6.50;;;;;;;28.85;38.29;98990.66;223736;181;138539;-71
2023/06/20 11:37:27;;;;;;;11.20;6.30;;;;;;;28.88;38.26;98986.88;223670;182;137775;-68
2023/06/20 11:42:34;;;;;;;9.60;5.80;;;;;;;28.95;38.20;98988.45;223722;181;149875;-69
2023/06/20 11:47:37;;;;;;;11.10;6.70;;;;;;;29.14;37.89;98980.45;223669;181;139107;-68
2023/06/20 11:52:41;;;;;;;10.50;7.50;;;;;;;29.30;36.72;98975.79;223721;181;137032;-67
2023/06/20 11:57:44;;;;;;;11.30;5.80;;;;;;;29.39;36.65;98976.42;223739;181;147112;-68
2023/06/20 12:02:49;;;;;;;12.50;6.70;;;;;;;29.50;35.88;98973.66;223747;181;138469;-68
2023/06/20 12:07:53;;;;;;;14.40;6.80;;;;;;;29.65;36.41;98966.83;223685;181;137545;-69
2023/06/20 12:13:03;;;;;;;8.80;6.60;;;;;;;29.74;36.40;98968.70;223601;181;147095;-67
2023/06/20 12:18:07;;;;;;;8.70;7.30;;;;;;;29.77;35.13;98976.66;223791;181;139068;-67
2023/06/20 12:23:10;;;;;;;11.10;6.60;;;;;;;29.84;35.77;98972.30;223758;181;137253;-69
2023/06/20 12:28:14;;;;;;;125.30;85.60;;;;;;;29.92;35.91;98968.73;223728;181;146987;-70
2023/06/20 14:45:41;;;;;;;10.20;6.00;;;;;;;29.24;36.61;98918.70;221392;226;667495;-68
2023/06/20 14:50:45;;;;;;;10.50;6.90;;;;;;;29.15;37.05;98915.20;223174;187;136590;-68
2023/06/20 14:55:51;;;;;;;22.50;17.60;;;;;;;29.11;36.89;98901.98;223551;184;145370;-71
2023/06/20 15:00:56;;;;;;;8.60;6.80;;;;;;;29.07;37.16;98897.02;223497;184;138270;-71
2023/06/20 15:05:59;;;;;;;78.60;61.90;;;;;;;28.94;36.50;98890.95;223577;184;136573;-64
2023/06/20 15:11:03;;;;;;;13.00;8.50;;;;;;;28.80;36.24;98895.00;223610;183;143335;-64
2023/06/20 17:25:29;;;;;;;14.60;11.50;;;;;;;27.62;40.66;98891.92;219627;193;665404;-67
2023/06/20 17:30:33;;;;;;;441.50;356.40;;;;;;;27.49;40.77;98894.36;223344;185;136261;-65
2023/06/20 17:35:38;;;;;;;30.50;25.10;;;;;;;27.41;41.13;98890.80;223383;184;143952;-64
2023/06/20 17:40:41;;;;;;;13.50;12.10;;;;;;;27.32;41.49;98891.92;223710;183;138702;-68
2023/06/20 17:45:45;;;;;;;13.40;10.60;;;;;;;27.25;41.91;98894.85;223652;183;137267;-64
2023/06/20 17:50:48;;;;;;;11.70;10.30;;;;;;;27.17;42.11;98892.89;223685;183;143763;-67
2023/06/20 17:55:51;;;;;;;10.40;8.60;;;;;;;27.10;42.39;98893.81;223593;183;139035;-67
2023/06/20 18:00:54;;;;;;;9.90;8.40;;;;;;;27.03;42.53;98891.23;223658;183;137387;-65
2023/06/20 18:05:58;;;;;;;11.90;8.00;;;;;;;26.98;42.85;98889.47;223637;183;144340;-67
2023/06/20 18:11:02;;;;;;;142.20;120.20;;;;;;;26.91;43.06;98891.30;223778;183;139623;-65
2023/06/20 18:16:07;;;;;;;24.40;18.80;;;;;;;26.85;43.28;98890.86;223681;183;137420;-69
2023/06/20 18:21:15;;;;;;;21.10;16.60;;;;;;;26.81;43.43;98888.23;223621;182;146016;-66
2023/06/20 18:26:32;;;;;;;17.00;12.30;;;;;;;26.75;43.66;98891.40;223682;182;138481;-64
2023/06/20 18:31:35;;;;;;;15.70;11.60;;;;;;;26.68;43.86;98893.73;223662;183;136853;-66
2023/06/20 18:36:38;;;;;;;205.60;171.70;;;;;;;26.61;43.95;98900.29;223697;181;145159;-64
2023/06/20 18:41:42;;;;;;;84.50;75.50;;;;;;;26.52;44.08;98902.86;223646;181;138593;-65
2023/06/20 18:46:45;;;;;;;90.70;81.00;;;;;;;26.40;44.52;98908.48;223741;181;137111;-65
2023/06/20 18:51:51;;;;;;;;;;;;;;;26.31;45.01;98912.37;223705;181;145312;-68
2023/06/20 18:56:54;;;;;;;31.30;25.30;;;;;;;26.17;45.64;98919.41;223714;181;138368;-64
2023/06/20 19:01:57;;;;;;;49.40;37.40;;;;;;;26.10;45.76;98917.63;223661;181;137294;-68
2023/06/20 19:07:01;;;;;;;23.70;18.80;;;;;;;26.01;46.30;98924.10;223830;181;146091;-68
2023/06/20 19:12:05;;;;;;;93.60;74.60;;;;;;;25.90;46.63;98928.79;223657;181;139995;-66
2023/06/20 19:17:11;;;;;;;18.30;12.20;;;;;;;25.83;46.94;98933.50;223709;181;137924;-64
2023/06/20 19:22:15;;;;;;;21.90;10.20;;;;;;;25.71;47.18;98944.86;223671;181;145709;-66
2023/06/20 19:27:19;;;;;;;13.30;8.80;;;;;;;25.61;47.72;98949.70;223730;181;138453;-67
2023/06/20 19:32:22;;;;;;;13.80;8.20;;;;;;;25.53;47.85;98950.62;223769;181;137904;-64
2023/06/20 19:37:25;;;;;;;11.30;8.80;;;;;;;25.46;48.04;98947.95;223654;181;145017;-64
2023/06/20 19:42:29;;;;;;;12.40;8.50;;;;;;;25.40;48.30;98952.94;223729;181;138663;-64
2023/06/20 19:50:46;;;;;;;10.40;8.70;;;;;;;25.32;48.82;98952.70;221804;226;666493;-64
2023/06/20 19:55:49;;;;;;;10.40;9.10;;;;;;;25.24;48.63;98948.67;223260;186;137233;-68
2023/06/20 20:00:53;;;;;;;11.00;8.70;;;;;;;25.20;48.94;98948.46;223856;182;143666;-71
2023/06/20 20:05:56;;;;;;;13.60;9.00;;;;;;;25.13;49.24;98945.02;223746;182;138411;-67
2023/06/20 20:10:59;;;;;;;10.70;8.50;;;;;;;25.08;49.49;98943.66;223726;182;136622;-66
2023/06/20 20:16:03;;;;;;;11.80;10.00;;;;;;;24.99;49.52;98947.28;223843;182;144266;-69
2023/06/20 20:21:08;;;;;;;13.40;10.00;;;;;;;24.93;49.67;98945.86;223721;182;140141;-64
2023/06/20 20:26:13;;;;;;;15.90;10.30;;;;;;;24.89;49.79;98948.95;223722;182;137082;-67
2023/06/20 20:31:20;;;;;;;14.30;9.40;;;;;;;24.84;50.05;98954.08;223973;181;143404;-68
2023/06/20 20:36:23;;;;;;;12.80;9.40;;;;;;;24.79;50.37;98958.08;223914;181;138413;-67
2023/06/20 20:53:30;;;;;;;14.10;10.30;;;;;;;24.66;51.42;98951.91;219595;194;665771;-69
2023/06/20 20:58:34;;;;;;;16.10;9.80;;;;;;;24.59;51.32;98952.05;223822;183;136505;-67
2023/06/20 21:03:38;;;;;;;12.30;9.40;;;;;;;24.54;51.32;98952.04;223818;182;143633;-68
2023/06/20 21:08:41;;;;;;;11.50;9.80;;;;;;;24.50;51.33;98947.14;223708;183;140414;-64
2023/06/20 21:13:44;;;;;;;13.50;9.90;;;;;;;24.46;51.44;98951.29;223775;182;136406;-64
2023/06/20 21:18:47;;;;;;;11.80;10.00;;;;;;;24.41;51.49;98953.52;223696;182;143412;-65
2023/06/20 21:23:51;;;;;;;14.40;10.10;;;;;;;24.35;51.87;98954.96;223738;182;138045;-67
2023/06/20 21:28:54;;;;;;;15.80;10.90;;;;;;;24.28;52.11;98953.20;223698;182;136620;-69
2023/06/20 21:34:01;;;;;;;14.90;10.30;;;;;;;24.23;52.19;98954.16;223862;183;143243;-66
2023/06/20 21:39:13;;;;;;;13.70;10.00;;;;;;;24.18;52.36;98957.69;223738;182;140528;-66
2023/06/20 21:44:17;;;;;;;14.00;10.40;;;;;;;24.14;52.49;98958.77;223755;182;136966;-69
2023/06/20 21:49:25;;;;;;;13.80;10.20;;;;;;;24.09;52.66;98964.34;223715;183;145251;-66
2023/06/20 21:54:36;;;;;;;14.20;10.00;;;;;;;24.02;53.05;98958.67;223622;179;139650;-67
2023/06/20 21:59:41;;;;;;;12.70;10.30;;;;;;;23.93;53.08;98955.29;223821;183;136909;-66
2023/06/20 22:04:45;;;;;;;12.30;10.30;;;;;;;23.87;53.25;98952.92;223667;183;145584;-65
2023/06/20 22:09:48;;;;;;;12.40;10.10;;;;;;;23.80;53.32;98951.86;223628;183;138014;-66
2023/06/20 22:15:06;;;;;;;12.60;10.50;;;;;;;23.73;53.53;98950.38;223835;182;137592;-68
2023/06/20 22:20:11;;;;;;;15.00;10.50;;;;;;;23.65;53.91;98952.77;223739;183;144992;-66
2023/06/20 22:25:14;;;;;;;13.20;10.40;;;;;;;23.58;54.51;98949.16;223673;183;138211;-66
2023/06/20 22:30:20;;;;;;;21.20;10.60;;;;;;;23.53;54.45;98946.14;223631;182;137284;-64
2023/06/20 22:35:23;;;;;;;14.00;10.70;;;;;;;23.51;54.20;98952.04;223738;183;145853;-70
2023/06/20 22:40:26;;;;;;;12.60;11.00;;;;;;;23.47;54.47;98950.84;223670;183;138261;-63
2023/06/20 22:45:30;;;;;;;14.90;10.80;;;;;;;23.44;54.39;98950.86;223655;183;136859;-67
2023/06/20 22:50:41;;;;;;;12.80;10.60;;;;;;;23.39;54.48;98951.95;223682;182;145489;-66
2023/06/20 22:55:44;;;;;;;14.00;10.90;;;;;;;23.31;55.02;98952.33;223611;183;138941;-68
2023/06/20 23:00:48;;;;;;;14.50;10.80;;;;;;;23.23;55.24;98954.96;223595;184;136735;-65
2023/06/20 23:10:32;;;;;;;13.50;11.20;;;;;;;23.19;55.50;98959.58;221797;192;666051;-66
2023/06/20 23:15:35;;;;;;;11.60;10.40;;;;;;;23.16;55.75;98965.72;223743;183;136262;-66
2023/06/20 23:20:46;;;;;;;12.70;10.30;;;;;;;23.14;55.72;98968.31;223655;183;143827;-64
2023/06/20 23:25:49;;;;;;;13.50;10.50;;;;;;;23.12;55.49;98971.98;223637;183;138565;-68
2023/06/20 23:30:53;;;;;;;13.60;11.10;;;;;;;23.08;55.35;98972.62;223700;183;139301;-65
2023/06/20 23:36:01;;;;;;;12.50;11.30;;;;;;;23.04;55.56;98970.23;223818;182;143833;-65
2023/06/20 23:41:04;;;;;;;15.20;10.90;;;;;;;22.98;55.57;98972.35;223702;183;139326;-66
2023/06/20 23:46:07;;;;;;;14.70;10.50;;;;;;;22.89;55.97;98971.81;223680;183;136593;-66
2023/06/20 23:51:11;;;;;;;13.30;10.60;;;;;;;22.81;55.99;98965.30;223755;183;143493;-70
2023/06/20 23:56:14;;;;;;;14.60;11.30;;;;;;;22.77;56.37;98959.64;223684;183;138631;-65
